createdAt,value
2017-11-19T19:08:03.652Z,19.60
2017-11-19T19:10:32.316Z,19.70
2017-11-19T19:13:01.717Z,19.80
2017-11-19T19:15:30.493Z,19.80
2017-11-19T19:18:00.282Z,19.80
2017-11-19T19:20:27.783Z,19.70
2017-11-19T19:22:58.196Z,19.50
2017-11-19T19:25:28.110Z,19.00
2017-11-19T19:27:57.952Z,18.60
2017-11-19T19:30:27.367Z,18.10
2017-11-19T19:32:56.886Z,17.60
2017-11-19T19:35:26.490Z,17.20
2017-11-19T19:37:56.455Z,16.80
2017-11-19T19:40:25.694Z,17.40
2017-11-19T19:42:53.148Z,18.70
2017-11-19T19:45:21.179Z,19.70
2017-11-19T20:58:13.458Z,20.30
2017-11-19T21:00:45.924Z,20.20
2017-11-19T21:03:18.524Z,20.00
2017-11-19T21:05:50.906Z,20.00
2017-11-19T21:08:26.698Z,19.60
2017-11-19T21:10:59.196Z,19.60
2017-11-19T21:13:33.629Z,19.40
2017-11-19T21:16:06.631Z,19.20
2017-11-19T21:18:41.764Z,19.10
2017-11-19T21:21:15.090Z,19.00
2017-11-19T21:23:46.768Z,18.80
2017-11-19T21:26:16.917Z,18.70
2017-11-19T21:28:46.780Z,18.60
2017-11-19T21:31:19.454Z,18.50
2017-11-19T21:33:49.560Z,18.40
2017-11-19T21:36:22.355Z,18.20
2017-11-19T21:38:55.507Z,18.00
2017-11-19T21:41:29.815Z,17.80
2017-11-19T21:44:06.715Z,17.80
2017-11-19T21:46:41.954Z,17.70
2017-11-19T21:49:15.283Z,17.70
2017-11-19T21:51:45.446Z,17.60
2017-11-19T21:54:16.849Z,17.50
2017-11-19T21:56:47.257Z,17.50
2017-11-19T21:59:18.818Z,17.50
2017-11-19T22:01:50.444Z,17.40
2017-11-19T22:04:22.814Z,17.30
2017-11-19T22:06:53.020Z,17.10
2017-11-19T22:09:25.409Z,17.00
2017-11-19T22:11:54.362Z,17.00
2017-11-19T22:14:25.976Z,17.00
2017-11-19T22:16:58.366Z,16.90
2017-11-19T22:22:02.969Z,16.80
2017-11-19T22:24:32.522Z,16.70
2017-11-19T22:27:01.684Z,16.60
2017-11-19T22:29:31.504Z,16.60
2017-11-19T22:32:01.788Z,16.50
2017-11-19T22:34:31.273Z,16.50
2017-11-19T22:37:00.715Z,16.40
2017-11-19T22:39:30.364Z,16.30
2017-11-19T22:41:59.835Z,16.30
2017-11-19T22:44:29.217Z,16.20
2017-11-19T22:46:58.766Z,16.20
2017-11-19T22:49:28.036Z,16.10
2017-11-19T22:51:58.948Z,16.00
2017-11-19T22:54:27.217Z,16.00
2017-11-19T22:56:56.818Z,16.00
2017-11-19T22:59:26.506Z,16.00
2017-11-19T23:01:56.314Z,15.90
2017-11-19T23:04:26.736Z,15.90
2017-11-19T23:06:55.249Z,15.80
2017-11-19T23:09:25.746Z,15.70
2017-11-19T23:11:54.962Z,15.60
2017-11-19T23:17:12.288Z,15.50
2017-11-19T23:19:45.157Z,15.50
2017-11-19T23:22:16.745Z,15.30
2017-11-19T23:24:46.190Z,15.30
2017-11-19T23:27:16.090Z,15.20
2017-11-19T23:29:45.125Z,15.20
2017-11-19T23:32:15.061Z,15.10
2017-11-19T23:34:45.739Z,15.10
2017-11-19T23:37:16.157Z,14.90
2017-11-19T23:39:46.358Z,14.90
2017-11-19T23:42:16.630Z,14.80
2017-11-19T23:44:52.695Z,14.60
2017-11-19T23:47:27.969Z,14.40
2017-11-19T23:50:02.968Z,14.30
2017-11-19T23:52:39.542Z,14.50
2017-11-19T23:55:09.598Z,14.50
2017-11-19T23:57:38.996Z,14.60
